South Channel Island, Victoria

7:04 PM AEST on July 25, 2016 (GMT +1000)
Sorrento, back beach | | Change Station

Elev 52 ft 38.36 °S, 144.75 °E | Updated 59 seconds ago

Rain
Rain
47.7 °F
Feels Like 43 °F
N
11.0
Wind Variable Wind from SSE
Gusts 18.0 mph

Today
High -- | Low -- °F
--% Chance of Precip.
Yesterday
High -- | Low -- °F
Precip. -- in
Pressure 29.68 in
Visibility 6.2 miles
Clouds Scattered Clouds 2500 ft
Mostly Cloudy 3500 ft
Mostly Cloudy 4400 ft
Windchill 43 °F
Dew Point 43 °F
Humidity 85%
Rainfall 0.17 in
Snow Depth Not available.
7:28 AM 5:26 PM
Waning Gibbous, 68% visible
SPECI YMEN 250903Z AUTO 30014KT 9999 RA SCT025 BKN035 BKN044 10/09 Q1005
Pressure 29.68 in
Visibility 6.2 miles
Clouds Scattered Clouds 2500 ft
Mostly Cloudy 3500 ft
Mostly Cloudy 4400 ft
Windchill 43 °F
Dew Point 43 °F
Humidity 85%
Rainfall 0.17 in
Snow Depth Not available.
7:28 AM 5:26 PM
Waning Gibbous, 68% visible
SPECI YMEN 250903Z AUTO 30014KT 9999 RA SCT025 BKN035 BKN044 10/09 Q1005

10-Day Weather Forecast

Almanac

Astronomy

Jul. 25, 2016 Rise Set
Actual Time
Civil Twilight
Nautical Twilight
Astronomical Twilight
Moon
Length of Visible Light
Length of Day
Tomorrow will be .
, % of the Moon is Illuminated

Today's Extremes

Country Highs Country Lows

Community

WunderPhotos

Upload Photos

1,927,274 photos uploaded!

WunderBlog® & News

Nearby

Air Quality

  Air Quality AQ Index Pollutant
Not available.

Snow Depth

Station Depth Elevation

Earthquake Activity

City Distance Mag. Time & Date
Minimum magnitude displayed is 2.5.

Coastal Water Temperatures

Place Temperature

Stations

Nearby Weather Stations

Station Location Temp. Windchill Dew Point Humidity Wind Precip. Elev Updated Type